LFRM/LME METAR and TAF weather

Enter ICAO airport designator
Station Type Date Time Source
LFRM METAR 2022/12/01 00:30 UTC NOAA

LFRM 010030Z AUTO 01006KT 340V040 9999 SCT019 06/04 Q1025


Station Type Date Time Source
LFRM Decoded METAR 2022/12/01 00:30 UTC NOAA

Le Mans, France (LFRM) 47-56N 000-12E 52M
Nov 30, 2022 - 07:30 PM EST / 2022.12.01 0030 UTC
Wind: from the N (010 degrees) at 7 MPH (6 KT) (direction variable):0
Visibility: greater than 7 mile(s):0
Sky conditions: partly cloudy
Temperature: 42 F (6 C)
Dew Point: 39 F (4 C)
Relative Humidity: 86%
Pressure (altimeter): 30.27 in. Hg (1025 hPa)
ob: LFRM 010030Z AUTO 01006KT 340V040 9999 SCT019 06/04 Q1025
cycle: 0

Station Type Date Time Source
LFRM TAF 2022/11/30 19:21 UTC NOAA

TAF LFRM 301900Z 3019/0112 CNL

Example: see airport list